Time;durP1;ratioP1;P1;durP2;ratioP2;P2;SDS_P1;SDS_P2;PMS_P1;PMS_P2;Temp;Humidity;BMP_temperature;BMP_pressure;BME280_temperature;BME280_humidity;BME280_pressure;Samples;Min_cycle;Max_cycle;Signal;HPM_P1;HPM_P2
2021/10/04 00:00:10;;;;;;;2.33;1.17;;;;;;;11.16;86.56;100645.50;683831;28;1196;-55
2021/10/04 00:00:33;;;;;;;3.45;1.23;;;;;;;11.17;86.40;100634.16;683109;28;4386;-54
2021/10/04 00:00:54;;;;;;;4.27;1.40;;;;;;;11.19;86.18;100640.25;682774;28;3731;-55
2021/10/04 00:01:15;;;;;;;2.53;1.17;;;;;;;11.23;86.33;100644.56;683794;28;1157;-53
2021/10/04 00:01:35;;;;;;;2.15;1.20;;;;;;;11.22;87.39;100642.81;683643;28;1388;-53
2021/10/04 00:01:56;;;;;;;3.17;1.20;;;;;;;11.31;86.96;100647.16;683398;28;962;-56
2021/10/04 00:02:16;;;;;;;2.97;1.50;;;;;;;11.30;85.81;100644.50;683629;28;1120;-56
2021/10/04 00:02:37;;;;;;;3.03;1.50;;;;;;;11.32;85.37;100648.00;683426;28;1436;-51
2021/10/04 00:02:57;;;;;;;2.13;1.17;;;;;;;11.33;85.53;100644.50;680953;29;1220;-56
2021/10/04 00:03:17;;;;;;;2.00;1.10;;;;;;;11.32;86.76;100648.00;680997;29;1137;-55
2021/10/04 00:03:39;;;;;;;2.55;1.25;;;;;;;11.28;86.75;100646.28;679912;28;5481;-53
2021/10/04 00:03:59;;;;;;;3.67;1.50;;;;;;;11.27;85.87;100657.63;683520;28;3452;-55
2021/10/04 00:04:19;;;;;;;4.35;1.50;;;;;;;11.30;85.83;100654.97;683341;28;4006;-56
2021/10/04 00:04:40;;;;;;;3.83;1.50;;;;;;;11.34;85.35;100651.47;683232;28;1105;-53
2021/10/04 00:05:00;;;;;;;3.27;1.30;;;;;;;11.34;85.98;100661.94;683292;28;1577;-53
2021/10/04 00:05:20;;;;;;;4.35;1.40;;;;;;;11.30;85.50;100660.22;683814;28;984;-56
2021/10/04 00:05:41;;;;;;;3.10;1.20;;;;;;;11.33;86.27;100657.59;683269;28;1053;-63
2021/10/04 00:06:01;;;;;;;3.07;1.20;;;;;;;11.31;86.10;100646.25;683652;28;1084;-56
2021/10/04 00:06:22;;;;;;;2.75;1.30;;;;;;;11.43;85.71;100661.00;682937;28;4807;-56
2021/10/04 00:06:42;;;;;;;2.47;1.23;;;;;;;11.53;84.87;100657.41;682362;28;1188;-51
2021/10/04 00:07:03;;;;;;;3.42;1.20;;;;;;;11.55;84.38;100659.13;682644;28;1222;-52
2021/10/04 00:07:24;;;;;;;2.95;1.10;;;;;;;11.50;84.15;100654.84;683165;28;3435;-54
2021/10/04 00:07:44;;;;;;;3.50;1.20;;;;;;;11.53;85.04;100657.41;677710;29;1242;-51
2021/10/04 00:08:05;;;;;;;3.97;1.30;;;;;;;11.44;85.61;100657.47;677617;29;1516;-52
2021/10/04 00:08:25;;;;;;;2.53;1.13;;;;;;;11.39;84.95;100657.53;677741;29;1265;-53
2021/10/04 00:08:45;;;;;;;3.13;1.30;;;;;;;11.38;85.06;100658.41;678341;29;1915;-53
2021/10/04 00:09:06;;;;;;;4.05;1.40;;;;;;;11.41;85.22;100659.25;680713;29;1066;-53
2021/10/04 00:09:27;;;;;;;2.87;1.30;;;;;;;11.46;85.25;100663.59;680057;28;4487;-53
2021/10/04 00:09:47;;;;;;;2.83;1.40;;;;;;;11.44;85.25;100658.38;682187;28;1299;-55
2021/10/04 00:10:13;;;;;;;3.25;1.13;;;;;;;11.48;85.25;100659.19;680381;29;1109;-55
2021/10/04 00:10:33;;;;;;;2.85;1.20;;;;;;;11.46;84.84;100664.44;679776;29;3624;-53
2021/10/04 00:10:54;;;;;;;3.70;1.30;;;;;;;11.43;84.99;100664.47;676931;29;3641;-56
2021/10/04 00:11:15;;;;;;;3.13;1.27;;;;;;;11.45;84.97;100664.47;675245;29;1282;-55
2021/10/04 00:11:35;;;;;;;2.33;1.20;;;;;;;11.40;84.69;100660.13;678096;28;1375;-55
2021/10/04 00:11:56;;;;;;;2.67;1.20;;;;;;;11.44;84.97;100666.22;681143;28;1176;-52
2021/10/04 00:12:16;;;;;;;3.30;1.20;;;;;;;11.41;84.74;100658.41;680316;29;1046;-55
2021/10/04 00:12:37;;;;;;;3.13;1.10;;;;;;;11.38;85.40;100663.63;680509;28;4415;-52
2021/10/04 00:12:58;;;;;;;3.60;1.20;;;;;;;11.35;85.19;100674.13;681192;28;1232;-52
2021/10/04 00:13:19;;;;;;;4.03;1.30;;;;;;;11.31;85.96;100672.44;683437;28;1319;-52
2021/10/04 00:13:39;;;;;;;3.70;1.30;;;;;;;11.41;85.58;100669.72;683421;28;1417;-55
2021/10/04 00:13:59;;;;;;;2.90;1.10;;;;;;;11.39;84.79;100673.25;682532;28;3874;-52
2021/10/04 00:14:21;;;;;;;3.33;1.50;;;;;;;11.36;84.69;100671.50;683578;28;1153;-55
2021/10/04 00:14:41;;;;;;;3.63;1.25;;;;;;;11.35;84.29;100674.13;683938;28;1180;-56
2021/10/04 00:15:04;;;;;;;2.63;1.10;;;;;;;11.35;84.48;100676.75;685722;28;1364;-55
2021/10/04 00:15:25;;;;;;;2.90;1.00;;;;;;;11.32;84.40;100676.78;685619;28;5156;-54
2021/10/04 00:15:46;;;;;;;4.90;1.25;;;;;;;11.34;85.30;100678.53;686058;28;958;-52
2021/10/04 00:16:06;;;;;;;3.88;1.40;;;;;;;11.35;85.13;100676.75;683566;28;1348;-55
2021/10/04 00:16:27;;;;;;;4.00;1.40;;;;;;;11.35;85.12;100679.38;683658;28;1070;-53
2021/10/04 00:16:50;;;;;;;4.67;1.40;;;;;;;11.35;84.61;100680.25;683065;28;1171;-56
2021/10/04 00:17:11;;;;;;;4.00;1.20;;;;;;;11.32;85.78;100679.41;682910;28;3430;-53
2021/10/04 00:17:31;;;;;;;2.50;1.10;;;;;;;11.29;86.55;100684.66;682906;28;3722;-54
2021/10/04 00:17:52;;;;;;;2.50;1.30;;;;;;;11.33;86.22;100686.38;681964;28;1256;-54
2021/10/04 00:18:13;;;;;;;2.22;1.15;;;;;;;11.31;85.40;100682.91;683556;28;1534;-54
2021/10/04 00:18:33;;;;;;;2.63;1.20;;;;;;;11.31;85.04;100685.50;684257;28;4461;-52
2021/10/04 00:18:54;;;;;;;2.75;1.20;;;;;;;11.30;84.92;100682.03;684588;28;1451;-56
2021/10/04 00:19:15;;;;;;;3.83;1.20;;;;;;;11.31;85.04;100680.28;684804;28;1046;-56
2021/10/04 00:19:35;;;;;;;2.63;1.25;;;;;;;11.30;84.59;100686.38;683885;28;1269;-54
2021/10/04 00:19:56;;;;;;;2.83;1.37;;;;;;;11.29;84.36;100682.91;683329;28;1334;-53
2021/10/04 00:20:17;;;;;;;3.42;1.27;;;;;;;11.30;84.79;100686.38;683871;28;3745;-53
2021/10/04 00:20:38;;;;;;;4.32;1.20;;;;;;;11.31;85.04;100688.13;683520;28;3171;-54
2021/10/04 00:20:59;;;;;;;2.75;1.15;;;;;;;11.29;85.41;100689.91;683674;28;1087;-55
2021/10/04 00:21:19;;;;;;;2.45;1.10;;;;;;;11.25;85.58;100687.28;684004;28;1080;-51
2021/10/04 00:21:40;;;;;;;3.25;1.30;;;;;;;11.24;86.21;100688.19;682013;28;4398;-52
2021/10/04 00:22:01;;;;;;;3.03;1.20;;;;;;;11.22;85.94;100689.06;683983;28;1097;-51
2021/10/04 00:22:21;;;;;;;2.65;1.27;;;;;;;11.20;86.07;100689.09;683074;28;1388;-56
2021/10/04 00:22:42;;;;;;;3.03;1.40;;;;;;;11.20;86.42;100690.81;683534;28;1803;-55
2021/10/04 00:23:04;;;;;;;2.95;1.20;;;;;;;11.32;85.75;100688.13;682957;28;1336;-52
2021/10/04 00:23:25;;;;;;;2.75;1.30;;;;;;;11.32;85.46;100695.09;683184;28;3863;-54
2021/10/04 00:23:45;;;;;;;4.17;1.40;;;;;;;11.31;85.49;100688.13;682334;28;3443;-54
2021/10/04 00:24:05;;;;;;;3.90;1.40;;;;;;;11.29;85.49;100697.75;683739;28;1409;-52
2021/10/04 00:24:26;;;;;;;4.43;1.23;;;;;;;11.28;85.73;100699.47;682956;28;4348;-56
2021/10/04 00:24:46;;;;;;;3.57;1.20;;;;;;;11.25;85.84;100697.75;683686;28;1674;-55
2021/10/04 00:25:07;;;;;;;3.00;1.20;;;;;;;11.23;86.35;100698.66;683897;28;1352;-56
2021/10/04 00:25:28;;;;;;;3.42;1.27;;;;;;;11.25;86.38;100705.59;682473;28;1208;-55
2021/10/04 00:25:48;;;;;;;2.80;1.30;;;;;;;11.23;85.68;100696.91;684000;28;1162;-57
2021/10/04 00:26:09;;;;;;;3.87;1.30;;;;;;;11.24;85.91;100703.00;684243;28;1287;-51
2021/10/04 00:26:31;;;;;;;3.25;1.20;;;;;;;11.25;85.54;100702.13;684112;28;1345;-52
2021/10/04 00:26:51;;;;;;;3.95;1.20;;;;;;;11.24;85.48;100697.75;682773;28;3957;-56
2021/10/04 00:27:11;;;;;;;2.63;1.20;;;;;;;11.21;85.93;100693.41;683498;28;1743;-56
2021/10/04 00:27:32;;;;;;;3.03;1.20;;;;;;;11.19;86.36;100699.56;683230;28;4575;-55
2021/10/04 00:27:52;;;;;;;4.20;1.30;;;;;;;11.22;87.06;100704.78;683035;28;1600;-52
2021/10/04 00:28:13;;;;;;;2.73;1.30;;;;;;;11.33;85.80;100702.09;683712;28;1156;-52
2021/10/04 00:28:33;;;;;;;2.47;1.20;;;;;;;11.28;86.15;100699.47;684077;28;1264;-55
2021/10/04 00:28:53;;;;;;;2.93;1.20;;;;;;;11.21;86.28;100698.66;683356;28;2009;-56
2021/10/04 00:29:14;;;;;;;2.40;1.10;;;;;;;11.22;86.04;100700.41;683998;28;1298;-56
2021/10/04 00:29:37;;;;;;;2.30;1.20;;;;;;;11.21;86.58;100698.66;683769;28;1266;-56
2021/10/04 00:29:58;;;;;;;2.85;1.20;;;;;;;11.23;85.76;100699.53;682773;28;3584;-57
2021/10/04 00:30:19;;;;;;;4.35;1.30;;;;;;;11.21;86.17;100693.41;683328;28;2248;-57
2021/10/04 00:30:40;;;;;;;4.55;1.20;;;;;;;11.20;86.07;100696.94;679155;28;4549;-52
2021/10/04 00:31:00;;;;;;;2.97;1.20;;;;;;;11.20;86.06;100696.06;680795;29;1164;-56
2021/10/04 00:31:20;;;;;;;3.00;1.20;;;;;;;11.18;86.64;100700.44;680721;29;1130;-56
2021/10/04 00:31:41;;;;;;;2.57;1.20;;;;;;;11.14;87.55;100691.72;680907;28;1137;-54
2021/10/04 00:32:02;;;;;;;3.00;1.38;;;;;;;11.11;87.79;100691.75;683237;28;1179;-54
2021/10/04 00:32:22;;;;;;;3.27;1.30;;;;;;;11.11;87.63;100694.38;683638;28;1232;-55
2021/10/04 00:32:45;;;;;;;3.10;1.20;;;;;;;11.07;87.65;100690.03;683130;28;1037;-54
2021/10/04 00:33:06;;;;;;;4.10;1.25;;;;;;;11.10;87.27;100694.38;682839;28;3383;-55
2021/10/04 00:33:26;;;;;;;4.07;1.20;;;;;;;11.12;86.85;100692.63;682339;28;4845;-53
2021/10/04 00:33:47;;;;;;;2.27;1.03;;;;;;;11.16;86.67;100699.56;683044;28;1202;-57
2021/10/04 00:34:07;;;;;;;1.88;1.10;;;;;;;11.14;87.15;100702.19;683042;28;1275;-55
2021/10/04 00:34:27;;;;;;;2.10;1.30;;;;;;;11.11;86.81;100698.75;682634;28;1153;-60
2021/10/04 00:34:48;;;;;;;2.80;1.20;;;;;;;11.10;86.83;100697.84;683380;28;1133;-53
2021/10/04 00:35:10;;;;;;;3.53;1.20;;;;;;;11.07;87.14;100690.03;683267;28;1256;-56
2021/10/04 00:35:30;;;;;;;4.72;1.20;;;;;;;11.07;87.02;100700.50;683510;28;1794;-56
2021/10/04 00:35:50;;;;;;;4.03;1.40;;;;;;;11.07;87.82;100703.13;683113;28;1181;-57
2021/10/04 00:36:11;;;;;;;3.60;1.40;;;;;;;11.10;86.98;100702.25;682972;28;1376;-56
2021/10/04 00:36:31;;;;;;;3.20;1.20;;;;;;;11.10;87.41;100700.47;682990;28;4364;-57
2021/10/04 00:36:52;;;;;;;3.50;1.27;;;;;;;11.12;87.42;100700.47;683562;28;1244;-52
2021/10/04 00:37:12;;;;;;;3.33;1.30;;;;;;;11.09;87.21;100704.00;681871;28;3198;-53
2021/10/04 00:37:33;;;;;;;3.50;1.30;;;;;;;11.12;87.13;100710.94;683595;28;3491;-53
2021/10/04 00:37:54;;;;;;;3.47;1.20;;;;;;;11.08;87.34;100703.09;683415;28;1284;-57
2021/10/04 00:38:14;;;;;;;2.77;1.30;;;;;;;11.07;86.90;100708.34;683349;28;2085;-57
2021/10/04 00:38:34;;;;;;;2.83;1.17;;;;;;;11.09;87.05;100709.22;683406;28;1058;-56
2021/10/04 00:38:55;;;;;;;3.10;1.10;;;;;;;11.09;87.17;100711.84;683657;28;1291;-54
2021/10/04 00:39:15;;;;;;;2.83;1.20;;;;;;;11.07;87.03;100706.59;683753;28;1315;-53
2021/10/04 00:39:36;;;;;;;2.87;1.33;;;;;;;11.04;86.88;100705.75;682848;28;4756;-53
2021/10/04 00:39:56;;;;;;;2.53;1.10;;;;;;;11.03;86.90;100706.63;683590;28;1297;-56
2021/10/04 00:40:22;;;;;;;2.87;1.10;;;;;;;11.03;86.73;100719.72;683574;28;1906;-53
2021/10/04 00:40:43;;;;;;;3.97;1.40;;;;;;;11.03;87.52;100714.47;682339;28;1993;-53
2021/10/04 00:41:03;;;;;;;4.30;1.50;;;;;;;11.03;87.42;100714.47;683888;28;989;-54
2021/10/04 00:41:24;;;;;;;3.07;1.20;;;;;;;11.07;87.52;100721.44;683530;28;1261;-55
2021/10/04 00:41:44;;;;;;;2.93;1.20;;;;;;;11.25;86.78;100720.44;682577;28;1424;-52
2021/10/04 00:42:04;;;;;;;2.15;1.00;;;;;;;11.38;85.75;100716.88;683721;28;1163;-56
2021/10/04 00:42:25;;;;;;;2.53;1.20;;;;;;;11.35;85.29;100716.91;683289;28;4607;-55
2021/10/04 00:42:48;;;;;;;4.20;1.30;;;;;;;11.35;85.04;100723.88;683133;28;1325;-53
2021/10/04 00:43:08;;;;;;;2.40;1.10;;;;;;;11.31;85.77;100714.31;683223;28;1050;-56
2021/10/04 00:43:29;;;;;;;3.50;1.27;;;;;;;11.27;86.89;100712.59;683834;28;1117;-53
2021/10/04 00:43:49;;;;;;;3.47;1.30;;;;;;;11.23;85.83;100714.38;683936;28;1607;-55
2021/10/04 00:44:10;;;;;;;2.45;1.15;;;;;;;11.19;86.32;100710.91;683810;28;3488;-52
2021/10/04 00:44:30;;;;;;;2.60;1.20;;;;;;;11.18;85.76;100714.38;683284;28;3812;-56
2021/10/04 00:44:52;;;;;;;4.70;1.40;;;;;;;11.18;86.15;100718.75;682904;28;1483;-54
2021/10/04 00:45:13;;;;;;;3.33;1.20;;;;;;;11.19;86.20;100720.50;685595;28;2029;-54
2021/10/04 00:45:33;;;;;;;3.35;1.25;;;;;;;11.24;85.60;100714.34;685035;28;4428;-53
2021/10/04 00:45:53;;;;;;;3.30;1.20;;;;;;;11.22;85.26;100716.09;685443;28;1232;-52
2021/10/04 00:46:14;;;;;;;3.90;1.33;;;;;;;11.22;85.02;100713.47;686506;28;1310;-54
2021/10/04 00:46:35;;;;;;;3.30;1.30;;;;;;;11.21;85.55;100713.50;683158;28;1264;-57
2021/10/04 00:46:55;;;;;;;3.13;1.20;;;;;;;11.19;86.32;100708.28;683691;28;1239;-54
2021/10/04 00:47:17;;;;;;;1.85;1.10;;;;;;;11.20;85.33;100711.75;683785;28;1053;-52
2021/10/04 00:47:39;;;;;;;2.38;1.30;;;;;;;11.19;86.08;100716.13;683175;28;1116;-54
2021/10/04 00:48:00;;;;;;;3.38;1.30;;;;;;;11.24;87.03;100716.97;682831;28;1192;-57
2021/10/04 00:48:21;;;;;;;3.03;1.30;;;;;;;11.21;86.38;100708.25;683475;28;2120;-56
2021/10/04 00:48:41;;;;;;;3.40;1.33;;;;;;;11.19;86.96;100716.13;681955;28;4712;-55
2021/10/04 00:49:02;;;;;;;3.00;1.30;;;;;;;11.18;85.95;100706.53;682458;28;1109;-56
2021/10/04 00:49:24;;;;;;;2.92;1.17;;;;;;;11.19;86.33;100710.91;684036;28;1185;-53
2021/10/04 00:49:44;;;;;;;1.95;1.02;;;;;;;11.15;86.42;100710.94;683007;28;2765;-53
2021/10/04 00:50:08;;;;;;;2.60;1.00;;;;;;;11.15;85.95;100703.09;683756;28;1103;-55
2021/10/04 00:50:30;;;;;;;3.50;1.20;;;;;;;11.18;86.33;100693.44;683781;28;1438;-53
2021/10/04 00:50:50;;;;;;;2.80;1.10;;;;;;;11.23;85.86;100696.91;682752;28;1469;-53
2021/10/04 00:51:11;;;;;;;2.85;1.20;;;;;;;11.22;85.56;100699.53;683048;28;1249;-55
2021/10/04 00:51:31;;;;;;;3.33;1.30;;;;;;;11.18;86.05;100698.69;681777;28;4414;-54
2021/10/04 00:51:51;;;;;;;3.97;1.23;;;;;;;11.15;85.29;100701.31;682772;28;1086;-54
2021/10/04 00:52:12;;;;;;;3.67;1.10;;;;;;;11.15;85.81;100698.72;683483;28;1274;-53
2021/10/04 00:52:32;;;;;;;2.72;1.10;;;;;;;11.16;86.00;100697.84;683336;28;1133;-55
2021/10/04 00:52:53;;;;;;;2.63;1.23;;;;;;;11.14;85.69;100703.97;682657;28;1233;-55
2021/10/04 00:53:13;;;;;;;2.60;1.20;;;;;;;11.13;86.14;100700.47;683837;28;1314;-53
2021/10/04 00:53:34;;;;;;;2.53;1.10;;;;;;;11.10;86.00;100700.47;683724;28;1307;-54
2021/10/04 00:53:55;;;;;;;3.10;1.10;;;;;;;11.05;87.36;100697.91;683510;28;1216;-54
2021/10/04 00:54:16;;;;;;;3.10;1.23;;;;;;;11.04;86.86;100703.16;683517;28;1101;-56
2021/10/04 00:54:36;;;;;;;2.77;1.33;;;;;;;11.02;86.93;100697.03;682056;28;4299;-56
2021/10/04 00:54:57;;;;;;;3.75;1.25;;;;;;;11.19;86.30;100702.19;681441;28;1017;-57
2021/10/04 00:55:18;;;;;;;2.23;1.17;;;;;;;11.22;85.85;100700.41;683213;28;3864;-57
2021/10/04 00:55:39;;;;;;;3.20;1.20;;;;;;;11.17;85.83;100701.31;683011;28;4163;-55
2021/10/04 00:55:59;;;;;;;2.70;1.30;;;;;;;11.28;85.83;100698.63;683110;28;1332;-55
2021/10/04 00:56:21;;;;;;;2.45;1.30;;;;;;;11.28;85.60;100703.88;683395;28;1310;-52
2021/10/04 00:56:42;;;;;;;3.08;1.20;;;;;;;11.37;84.90;100704.66;682367;28;1066;-55
2021/10/04 00:57:04;;;;;;;3.05;1.25;;;;;;;11.31;84.84;100709.97;683225;28;1175;-54
2021/10/04 00:57:24;;;;;;;2.13;1.30;;;;;;;11.29;84.98;100711.69;683108;28;4612;-55
2021/10/04 00:57:46;;;;;;;2.65;1.27;;;;;;;11.26;85.10;100714.34;683169;28;1029;-55
2021/10/04 00:58:07;;;;;;;2.53;1.20;;;;;;;11.24;85.08;100709.13;683891;28;1172;-57
2021/10/04 00:58:27;;;;;;;3.63;1.20;;;;;;;11.22;85.46;100710.88;683719;28;1342;-54
2021/10/04 00:58:51;;;;;;;4.77;1.40;;;;;;;11.17;85.52;100712.66;683409;28;1076;-55
2021/10/04 00:59:12;;;;;;;2.88;1.40;;;;;;;11.27;85.59;100721.31;680844;28;3126;-53
2021/10/04 00:59:33;;;;;;;3.13;1.23;;;;;;;11.21;85.19;100716.13;683539;28;3829;-54
2021/10/04 00:59:53;;;;;;;3.92;1.20;;;;;;;11.14;86.51;100717.03;682132;28;1314;-53
2021/10/04 01:00:17;;;;;;;2.97;1.20;;;;;;;11.12;86.29;100727.50;682071;28;1283;-53
2021/10/04 01:00:39;;;;;;;3.85;1.20;;;;;;;11.18;86.16;100713.53;682042;28;4402;-54
2021/10/04 01:01:00;;;;;;;2.20;1.20;;;;;;;11.19;85.59;100716.13;683497;28;1465;-56
2021/10/04 01:01:20;;;;;;;2.08;1.10;;;;;;;11.20;85.51;100715.25;682928;28;1629;-54
2021/10/04 01:01:41;;;;;;;2.45;1.23;;;;;;;11.32;85.39;100711.66;683149;28;1050;-53
2021/10/04 01:02:01;;;;;;;2.97;1.20;;;;;;;11.37;85.13;100714.28;683525;28;1043;-51
2021/10/04 01:02:22;;;;;;;3.00;1.20;;;;;;;11.35;85.26;100716.00;683916;28;1097;-55
2021/10/04 01:02:43;;;;;;;2.40;1.10;;;;;;;11.29;85.74;100716.06;683480;28;975;-54
2021/10/04 01:03:03;;;;;;;2.28;1.17;;;;;;;11.25;85.44;100716.06;683514;28;2127;-54
2021/10/04 01:03:24;;;;;;;2.65;1.20;;;;;;;11.20;85.37;100711.75;682485;28;4610;-56
2021/10/04 01:03:44;;;;;;;2.77;1.20;;;;;;;11.17;85.69;100715.28;682600;28;1196;-53
2021/10/04 01:04:05;;;;;;;3.47;1.30;;;;;;;11.14;85.88;100715.28;685575;28;1140;-54
2021/10/04 01:04:26;;;;;;;3.10;1.10;;;;;;;11.10;85.86;100713.56;685732;28;1051;-53
2021/10/04 01:04:46;;;;;;;2.70;1.10;;;;;;;11.07;86.03;100721.44;685389;28;1206;-53
2021/10/04 01:05:08;;;;;;;2.47;1.10;;;;;;;11.16;86.31;100720.50;683399;28;979;-56
2021/10/04 01:05:29;;;;;;;2.53;1.17;;;;;;;11.18;85.66;100717.00;683141;28;1237;-55
2021/10/04 01:05:50;;;;;;;3.28;1.20;;;;;;;11.18;85.13;100714.38;683123;28;1223;-51
2021/10/04 01:06:10;;;;;;;3.47;1.20;;;;;;;11.29;85.16;100718.69;683111;28;1184;-54
2021/10/04 01:06:32;;;;;;;2.50;1.10;;;;;;;11.35;84.91;100705.53;682631;28;4584;-56
2021/10/04 01:06:56;;;;;;;2.88;1.13;;;;;;;11.30;84.75;100707.31;684104;28;3348;-54
2021/10/04 01:07:16;;;;;;;2.92;1.10;;;;;;;11.22;84.86;100713.47;685654;28;4097;-55
2021/10/04 01:07:37;;;;;;;3.15;1.20;;;;;;;11.24;85.76;100709.13;684333;28;1431;-53
2021/10/04 01:07:58;;;;;;;3.72;1.25;;;;;;;11.19;85.87;100704.81;685257;28;1831;-51
2021/10/04 01:08:18;;;;;;;3.13;1.33;;;;;;;11.27;85.57;100702.13;684495;28;1129;-55
2021/10/04 01:08:39;;;;;;;3.15;1.30;;;;;;;11.29;85.11;100706.47;682760;28;1460;-52
2021/10/04 01:08:59;;;;;;;2.53;1.20;;;;;;;11.25;85.07;100705.59;683410;28;1930;-53
2021/10/04 01:09:21;;;;;;;2.28;1.10;;;;;;;11.19;85.37;100702.19;683757;28;1224;-56
2021/10/04 01:09:42;;;;;;;3.08;1.30;;;;;;;11.15;85.60;100706.56;680875;28;4833;-55
2021/10/04 01:10:04;;;;;;;3.67;1.20;;;;;;;11.19;86.04;100713.50;683564;28;1078;-56
2021/10/04 01:10:27;;;;;;;3.20;1.20;;;;;;;11.17;85.76;100709.16;683967;28;1053;-54
2021/10/04 01:10:47;;;;;;;2.90;1.20;;;;;;;11.15;85.94;100711.78;683221;28;3193;-54
2021/10/04 01:11:08;;;;;;;2.97;1.15;;;;;;;11.15;85.97;100709.19;683229;28;2065;-57
2021/10/04 01:11:29;;;;;;;3.85;1.20;;;;;;;11.11;85.32;100702.22;683041;28;1212;-56
2021/10/04 01:11:50;;;;;;;2.92;1.13;;;;;;;11.10;86.10;100710.94;682806;28;1200;-53
2021/10/04 01:12:11;;;;;;;3.75;1.10;;;;;;;11.07;85.89;100700.50;683713;28;1493;-56
2021/10/04 01:12:32;;;;;;;3.33;1.30;;;;;;;11.02;86.74;100716.25;682050;28;4583;-53
2021/10/04 01:12:52;;;;;;;3.28;1.40;;;;;;;10.99;86.46;100704.91;683102;28;1365;-54
2021/10/04 01:13:13;;;;;;;2.90;1.30;;;;;;;10.95;86.79;100705.81;684171;28;1061;-53
2021/10/04 01:13:33;;;;;;;2.87;1.20;;;;;;;11.07;86.39;100710.97;683715;28;1096;-56
2021/10/04 01:13:54;;;;;;;2.88;1.23;;;;;;;11.11;85.98;100701.38;683095;28;1069;-55
2021/10/04 01:14:15;;;;;;;3.17;1.30;;;;;;;11.22;85.46;100710.00;682882;28;1978;-55
2021/10/04 01:14:36;;;;;;;3.03;1.30;;;;;;;11.23;85.41;100706.53;683501;28;1105;-56
2021/10/04 01:14:56;;;;;;;2.85;1.10;;;;;;;11.23;85.03;100710.00;682690;28;3805;-55
2021/10/04 01:15:18;;;;;;;4.05;1.30;;;;;;;11.21;85.05;100708.25;682126;28;1680;-52
2021/10/04 01:15:39;;;;;;;2.72;1.25;;;;;;;11.16;85.99;100710.03;682002;28;4453;-54
2021/10/04 01:15:59;;;;;;;2.70;1.40;;;;;;;11.07;85.75;100708.34;683437;28;1045;-53
2021/10/04 01:16:21;;;;;;;2.63;1.30;;;;;;;11.04;85.52;100711.84;685873;28;1472;-55
2021/10/04 01:16:41;;;;;;;2.58;1.35;;;;;;;11.03;85.74;100715.34;685169;28;894;-54
2021/10/04 01:17:02;;;;;;;3.70;1.20;;;;;;;11.02;85.61;100708.38;683587;28;1140;-54
2021/10/04 01:17:22;;;;;;;3.60;1.17;;;;;;;11.02;85.83;100711.00;684178;28;1120;-53
2021/10/04 01:17:43;;;;;;;3.90;1.33;;;;;;;11.01;86.84;100711.03;682986;28;1205;-52
2021/10/04 01:18:06;;;;;;;3.10;1.25;;;;;;;10.99;86.34;100710.16;683402;28;1076;-56
2021/10/04 01:18:26;;;;;;;2.20;1.10;;;;;;;10.99;86.21;100707.53;682615;28;4432;-53
2021/10/04 01:18:47;;;;;;;2.60;1.20;;;;;;;10.99;86.49;100708.38;683269;28;3645;-51
2021/10/04 01:19:07;;;;;;;2.87;1.10;;;;;;;10.96;86.79;100711.03;684119;28;1312;-53
2021/10/04 01:19:30;;;;;;;3.67;1.42;;;;;;;10.90;87.57;100711.94;683719;28;1391;-53
2021/10/04 01:19:51;;;;;;;3.92;1.55;;;;;;;10.88;87.00;100710.19;682685;28;1322;-55
2021/10/04 01:20:16;;;;;;;3.13;1.33;;;;;;;10.89;87.06;100711.94;682477;28;1027;-53
2021/10/04 01:20:37;;;;;;;3.15;1.23;;;;;;;10.89;87.78;100711.94;682696;28;1164;-56
2021/10/04 01:20:58;;;;;;;3.10;1.20;;;;;;;10.89;88.26;100714.56;683936;28;1140;-53
2021/10/04 01:21:18;;;;;;;2.63;1.23;;;;;;;10.89;87.28;100707.56;683519;28;1200;-53
2021/10/04 01:21:39;;;;;;;3.00;1.40;;;;;;;10.97;87.19;100714.53;682447;28;4648;-53
2021/10/04 01:21:59;;;;;;;2.77;1.20;;;;;;;11.00;86.93;100712.75;682279;28;1166;-53
2021/10/04 01:22:19;;;;;;;3.38;1.20;;;;;;;11.00;86.55;100717.13;683275;28;1105;-53
2021/10/04 01:22:40;;;;;;;3.03;1.27;;;;;;;10.99;86.31;100710.16;682582;28;3654;-52
2021/10/04 01:23:01;;;;;;;3.25;1.30;;;;;;;10.99;86.30;100710.16;683155;28;1215;-57
2021/10/04 01:23:21;;;;;;;3.90;1.30;;;;;;;10.99;86.33;100712.75;683421;28;1447;-55
2021/10/04 01:23:42;;;;;;;2.60;1.20;;;;;;;10.97;87.32;100715.38;683037;28;1326;-55
2021/10/04 01:24:04;;;;;;;2.78;1.20;;;;;;;10.96;86.62;100718.88;683388;28;1029;-55
2021/10/04 01:24:25;;;;;;;3.13;1.20;;;;;;;10.96;86.54;100718.88;681950;28;4941;-55
2021/10/04 01:24:45;;;;;;;3.55;1.33;;;;;;;10.95;86.64;100721.50;683186;28;1141;-53
2021/10/04 01:25:06;;;;;;;5.27;1.47;;;;;;;10.96;86.55;100715.41;683265;28;1223;-54
2021/10/04 01:25:27;;;;;;;4.35;1.40;;;;;;;10.96;86.76;100724.09;683430;28;1442;-52
2021/10/04 01:25:47;;;;;;;2.75;1.27;;;;;;;10.93;87.84;100716.28;683238;28;1314;-52
2021/10/04 01:26:08;;;;;;;2.75;1.13;;;;;;;10.93;87.28;100718.91;683523;28;1216;-56
2021/10/04 01:26:28;;;;;;;3.37;1.20;;;;;;;10.92;87.15;100716.28;683455;28;3129;-52
2021/10/04 01:26:48;;;;;;;3.67;1.20;;;;;;;10.93;86.92;100723.28;682579;28;2558;-53
2021/10/04 01:27:09;;;;;;;2.92;1.40;;;;;;;10.91;87.46;100720.66;682603;28;1275;-55
2021/10/04 01:27:29;;;;;;;2.72;1.33;;;;;;;10.92;86.55;100711.06;682452;28;4432;-56
2021/10/04 01:27:50;;;;;;;3.43;1.20;;;;;;;10.93;86.50;100713.66;683527;28;1327;-54
2021/10/04 01:28:10;;;;;;;3.17;1.20;;;;;;;10.94;86.27;100711.91;683631;28;1335;-56
2021/10/04 01:28:31;;;;;;;2.53;1.13;;;;;;;10.95;86.34;100713.66;685967;28;1120;-53
2021/10/04 01:28:51;;;;;;;3.22;1.30;;;;;;;10.97;87.40;100719.75;685747;28;1926;-53
2021/10/04 01:29:12;;;;;;;3.17;1.20;;;;;;;10.97;86.83;100711.91;686139;28;1182;-55
2021/10/04 01:29:32;;;;;;;3.13;1.27;;;;;;;10.99;85.75;100718.00;685755;28;4023;-53
2021/10/04 01:29:52;;;;;;;2.90;1.07;;;;;;;11.00;85.59;100719.75;685387;28;1115;-54
2021/10/04 01:30:14;;;;;;;2.57;1.13;;;;;;;11.00;85.32;100724.97;685793;28;1306;-56
2021/10/04 01:30:35;;;;;;;3.03;1.25;;;;;;;11.00;85.31;100719.75;682809;28;4523;-53
2021/10/04 01:30:56;;;;;;;2.37;1.30;;;;;;;11.01;85.49;100721.47;684277;28;1400;-56
2021/10/04 01:31:22;;;;;;;3.03;1.35;;;;;;;11.00;86.33;100725.81;684200;28;1304;-55
2021/10/04 01:31:42;;;;;;;3.47;1.20;;;;;;;11.02;85.67;100733.66;684174;28;1011;-52
2021/10/04 01:32:03;;;;;;;2.70;1.20;;;;;;;10.99;86.36;100725.84;684594;28;1203;-57
2021/10/04 01:32:24;;;;;;;3.75;1.25;;;;;;;10.99;86.24;100731.94;684004;28;1157;-55
2021/10/04 01:32:45;;;;;;;2.95;1.35;;;;;;;11.00;85.83;100727.59;683858;28;1254;-55
2021/10/04 01:33:05;;;;;;;3.22;1.17;;;;;;;11.00;86.12;100727.59;684144;28;1315;-55
2021/10/04 01:33:26;;;;;;;3.47;1.15;;;;;;;11.00;86.04;100731.06;683710;28;4628;-55
2021/10/04 01:33:46;;;;;;;2.80;1.10;;;;;;;11.00;86.25;100732.81;678805;29;1358;-52
2021/10/04 01:34:06;;;;;;;2.13;1.20;;;;;;;11.01;85.53;100732.81;679107;29;1035;-52
2021/10/04 01:34:27;;;;;;;3.07;1.20;;;;;;;11.02;85.60;100731.03;678534;29;1143;-54
2021/10/04 01:34:47;;;;;;;2.43;1.10;;;;;;;11.04;86.63;100726.69;678435;29;1115;-52
2021/10/04 01:35:09;;;;;;;2.70;1.10;;;;;;;11.04;86.20;100734.53;681722;28;1295;-53
2021/10/04 01:35:29;;;;;;;3.55;1.38;;;;;;;11.04;86.94;100737.16;679587;28;1245;-54
2021/10/04 01:35:50;;;;;;;3.07;1.30;;;;;;;11.01;86.35;100735.41;683945;28;1173;-56
2021/10/04 01:36:11;;;;;;;2.45;1.20;;;;;;;11.04;86.75;100734.53;683899;28;923;-54
2021/10/04 01:36:32;;;;;;;2.58;1.17;;;;;;;11.08;85.93;100733.66;680586;28;4464;-53
2021/10/04 01:36:52;;;;;;;2.93;1.30;;;;;;;11.08;85.43;100733.66;681183;28;1080;-54
2021/10/04 01:37:12;;;;;;;2.43;1.10;;;;;;;11.10;85.33;100731.00;681700;28;3574;-54
2021/10/04 01:37:33;;;;;;;3.77;1.27;;;;;;;11.09;85.06;100730.16;683157;28;2127;-55
2021/10/04 01:37:54;;;;;;;4.33;1.30;;;;;;;11.08;85.46;100731.03;683733;28;1214;-53
2021/10/04 01:38:14;;;;;;;3.15;1.20;;;;;;;11.06;86.58;100733.66;684047;28;1224;-54
2021/10/04 01:38:34;;;;;;;3.10;1.10;;;;;;;11.08;85.81;100733.66;683805;28;1545;-55
2021/10/04 01:38:55;;;;;;;2.47;1.20;;;;;;;11.08;85.65;100729.28;682746;28;1216;-52
2021/10/04 01:39:16;;;;;;;2.78;1.27;;;;;;;11.09;85.76;100727.53;684550;28;1232;-54